sensor_id;sensor_type;location;lat;lon;timestamp;temperature;humidity
41310;DHT22;27057;51.438;-0.010;2022-07-29T00:01:50;18.40;99.90
41310;DHT22;27057;51.438;-0.010;2022-07-29T00:04:19;18.40;99.90
41310;DHT22;27057;51.438;-0.010;2022-07-29T00:06:47;18.40;99.90
41310;DHT22;27057;51.438;-0.010;2022-07-29T00:09:15;18.40;99.90
41310;DHT22;27057;51.438;-0.010;2022-07-29T00:11:42;18.40;99.90
41310;DHT22;27057;51.438;-0.010;2022-07-29T00:14:10;18.40;99.90
41310;DHT22;27057;51.438;-0.010;2022-07-29T00:16:37;18.30;99.90
41310;DHT22;27057;51.438;-0.010;2022-07-29T00:19:05;18.40;99.90
41310;DHT22;27057;51.438;-0.010;2022-07-29T00:21:34;18.40;99.90
41310;DHT22;27057;51.438;-0.010;2022-07-29T00:24:01;18.40;99.90
41310;DHT22;27057;51.438;-0.010;2022-07-29T00:26:29;18.40;99.90
41310;DHT22;27057;51.438;-0.010;2022-07-29T00:29:00;18.40;99.90
41310;DHT22;27057;51.438;-0.010;2022-07-29T00:31:47;18.50;99.90
41310;DHT22;27057;51.438;-0.010;2022-07-29T00:34:15;18.50;99.90
41310;DHT22;27057;51.438;-0.010;2022-07-29T00:37:01;18.50;99.90
41310;DHT22;27057;51.438;-0.010;2022-07-29T00:39:29;18.40;99.90
41310;DHT22;27057;51.438;-0.010;2022-07-29T00:41:56;18.50;99.90
41310;DHT22;27057;51.438;-0.010;2022-07-29T00:44:23;18.50;99.90
41310;DHT22;27057;51.438;-0.010;2022-07-29T00:46:51;18.40;99.90
41310;DHT22;27057;51.438;-0.010;2022-07-29T00:49:18;18.40;99.90
41310;DHT22;27057;51.438;-0.010;2022-07-29T00:51:46;18.40;99.90
41310;DHT22;27057;51.438;-0.010;2022-07-29T00:54:14;18.20;99.90
41310;DHT22;27057;51.438;-0.010;2022-07-29T00:56:42;18.40;99.90
41310;DHT22;27057;51.438;-0.010;2022-07-29T00:59:10;18.40;99.90
41310;DHT22;27057;51.438;-0.010;2022-07-29T01:01:37;18.40;99.90
41310;DHT22;27057;51.438;-0.010;2022-07-29T01:04:06;18.40;99.90
41310;DHT22;27057;51.438;-0.010;2022-07-29T01:06:34;18.30;99.90
41310;DHT22;27057;51.438;-0.010;2022-07-29T01:09:01;18.30;99.90
41310;DHT22;27057;51.438;-0.010;2022-07-29T01:11:30;18.10;99.90
41310;DHT22;27057;51.438;-0.010;2022-07-29T01:13:58;18.30;99.90
41310;DHT22;27057;51.438;-0.010;2022-07-29T01:16:31;18.30;99.90
41310;DHT22;27057;51.438;-0.010;2022-07-29T01:19:07;18.30;99.90
41310;DHT22;27057;51.438;-0.010;2022-07-29T01:21:50;18.40;99.90
41310;DHT22;27057;51.438;-0.010;2022-07-29T01:27:00;18.30;99.90
41310;DHT22;27057;51.438;-0.010;2022-07-29T01:29:36;18.30;99.90
41310;DHT22;27057;51.438;-0.010;2022-07-29T01:32:20;18.30;99.90
41310;DHT22;27057;51.438;-0.010;2022-07-29T01:35:12;18.30;99.90
41310;DHT22;27057;51.438;-0.010;2022-07-29T01:37:48;18.30;99.90
41310;DHT22;27057;51.438;-0.010;2022-07-29T01:40:37;18.30;99.90
41310;DHT22;27057;51.438;-0.010;2022-07-29T01:43:11;18.30;99.90
41310;DHT22;27057;51.438;-0.010;2022-07-29T01:46:02;18.30;99.90
41310;DHT22;27057;51.438;-0.010;2022-07-29T01:48:33;18.20;99.90
41310;DHT22;27057;51.438;-0.010;2022-07-29T01:51:07;18.20;99.90
41310;DHT22;27057;51.438;-0.010;2022-07-29T01:53:51;18.20;99.90
41310;DHT22;27057;51.438;-0.010;2022-07-29T01:56:23;18.20;99.90
41310;DHT22;27057;51.438;-0.010;2022-07-29T01:58:52;18.20;99.90
41310;DHT22;27057;51.438;-0.010;2022-07-29T02:01:22;18.10;99.90
41310;DHT22;27057;51.438;-0.010;2022-07-29T02:03:53;18.10;99.90
41310;DHT22;27057;51.438;-0.010;2022-07-29T02:06:22;18.10;99.90
41310;DHT22;27057;51.438;-0.010;2022-07-29T02:08:51;18.00;99.90
41310;DHT22;27057;51.438;-0.010;2022-07-29T02:11:19;18.00;99.90
41310;DHT22;27057;51.438;-0.010;2022-07-29T02:13:47;18.00;99.90
41310;DHT22;27057;51.438;-0.010;2022-07-29T02:16:17;18.00;99.90
41310;DHT22;27057;51.438;-0.010;2022-07-29T02:18:51;17.90;99.90
41310;DHT22;27057;51.438;-0.010;2022-07-29T02:21:22;17.90;99.90
41310;DHT22;27057;51.438;-0.010;2022-07-29T02:23:52;17.70;99.90
41310;DHT22;27057;51.438;-0.010;2022-07-29T02:26:21;17.90;99.90
41310;DHT22;27057;51.438;-0.010;2022-07-29T02:28:52;17.80;99.90
41310;DHT22;27057;51.438;-0.010;2022-07-29T02:31:24;17.80;99.90
41310;DHT22;27057;51.438;-0.010;2022-07-29T02:33:53;17.80;99.90
41310;DHT22;27057;51.438;-0.010;2022-07-29T02:36:22;17.70;99.90
41310;DHT22;27057;51.438;-0.010;2022-07-29T02:38:51;17.70;99.90
41310;DHT22;27057;51.438;-0.010;2022-07-29T02:41:24;17.60;99.90
41310;DHT22;27057;51.438;-0.010;2022-07-29T02:44:10;17.60;99.90
41310;DHT22;27057;51.438;-0.010;2022-07-29T02:46:43;17.50;99.90
41310;DHT22;27057;51.438;-0.010;2022-07-29T02:49:21;17.40;99.90
41310;DHT22;27057;51.438;-0.010;2022-07-29T02:55:00;17.40;99.90
41310;DHT22;27057;51.438;-0.010;2022-07-29T02:57:43;17.30;99.90
41310;DHT22;27057;51.438;-0.010;2022-07-29T03:00:23;17.20;99.90
41310;DHT22;27057;51.438;-0.010;2022-07-29T03:02:56;17.20;99.90
41310;DHT22;27057;51.438;-0.010;2022-07-29T03:05:26;17.10;99.90
41310;DHT22;27057;51.438;-0.010;2022-07-29T03:08:02;17.10;99.90
41310;DHT22;27057;51.438;-0.010;2022-07-29T03:10:31;17.10;99.90
41310;DHT22;27057;51.438;-0.010;2022-07-29T03:12:58;17.10;99.90
41310;DHT22;27057;51.438;-0.010;2022-07-29T03:15:27;17.30;99.90
41310;DHT22;27057;51.438;-0.010;2022-07-29T03:17:55;17.00;99.90
41310;DHT22;27057;51.438;-0.010;2022-07-29T03:20:23;17.00;99.90
41310;DHT22;27057;51.438;-0.010;2022-07-29T03:22:50;16.90;99.90
41310;DHT22;27057;51.438;-0.010;2022-07-29T03:25:19;16.90;99.90
41310;DHT22;27057;51.438;-0.010;2022-07-29T03:27:47;16.80;99.90
41310;DHT22;27057;51.438;-0.010;2022-07-29T03:30:15;16.90;99.90
41310;DHT22;27057;51.438;-0.010;2022-07-29T03:32:49;16.90;99.90
41310;DHT22;27057;51.438;-0.010;2022-07-29T03:35:19;16.80;99.90
41310;DHT22;27057;51.438;-0.010;2022-07-29T03:37:46;16.90;99.90
41310;DHT22;27057;51.438;-0.010;2022-07-29T03:40:22;16.70;99.90
41310;DHT22;27057;51.438;-0.010;2022-07-29T03:42:51;16.80;99.90
41310;DHT22;27057;51.438;-0.010;2022-07-29T03:45:20;16.70;99.90
41310;DHT22;27057;51.438;-0.010;2022-07-29T03:47:55;16.90;99.90
41310;DHT22;27057;51.438;-0.010;2022-07-29T03:50:28;16.70;99.90
41310;DHT22;27057;51.438;-0.010;2022-07-29T03:52:59;16.70;99.90
41310;DHT22;27057;51.438;-0.010;2022-07-29T03:55:29;16.70;99.90
41310;DHT22;27057;51.438;-0.010;2022-07-29T03:58:00;16.70;99.90
41310;DHT22;27057;51.438;-0.010;2022-07-29T04:00:29;16.80;99.90
41310;DHT22;27057;51.438;-0.010;2022-07-29T04:02:58;16.70;99.90
41310;DHT22;27057;51.438;-0.010;2022-07-29T04:05:25;16.60;99.90
41310;DHT22;27057;51.438;-0.010;2022-07-29T04:07:52;16.60;99.90
41310;DHT22;27057;51.438;-0.010;2022-07-29T04:10:20;16.50;99.90
41310;DHT22;27057;51.438;-0.010;2022-07-29T04:12:58;16.50;99.90
41310;DHT22;27057;51.438;-0.010;2022-07-29T04:15:26;16.50;99.90
41310;DHT22;27057;51.438;-0.010;2022-07-29T04:17:58;16.40;99.90
41310;DHT22;27057;51.438;-0.010;2022-07-29T04:20:26;16.40;99.90
41310;DHT22;27057;51.438;-0.010;2022-07-29T04:22:53;16.60;99.90
41310;DHT22;27057;51.438;-0.010;2022-07-29T04:25:21;16.60;99.90
41310;DHT22;27057;51.438;-0.010;2022-07-29T04:27:48;16.40;99.90
41310;DHT22;27057;51.438;-0.010;2022-07-29T04:30:29;16.60;99.90
41310;DHT22;27057;51.438;-0.010;2022-07-29T04:32:57;16.50;99.90
41310;DHT22;27057;51.438;-0.010;2022-07-29T04:35:24;16.50;99.90
41310;DHT22;27057;51.438;-0.010;2022-07-29T04:37:51;16.50;99.90
41310;DHT22;27057;51.438;-0.010;2022-07-29T04:40:19;16.50;99.90
41310;DHT22;27057;51.438;-0.010;2022-07-29T04:42:46;16.50;99.90
41310;DHT22;27057;51.438;-0.010;2022-07-29T04:45:15;16.60;99.90
41310;DHT22;27057;51.438;-0.010;2022-07-29T04:47:49;16.60;99.90
41310;DHT22;27057;51.438;-0.010;2022-07-29T04:50:16;16.60;99.90
41310;DHT22;27057;51.438;-0.010;2022-07-29T04:52:45;16.60;99.90
41310;DHT22;27057;51.438;-0.010;2022-07-29T04:55:12;16.60;99.90
41310;DHT22;27057;51.438;-0.010;2022-07-29T04:57:40;16.50;99.90
41310;DHT22;27057;51.438;-0.010;2022-07-29T05:00:08;16.50;99.90
41310;DHT22;27057;51.438;-0.010;2022-07-29T05:02:35;16.60;99.90
41310;DHT22;27057;51.438;-0.010;2022-07-29T05:05:03;16.60;99.90
41310;DHT22;27057;51.438;-0.010;2022-07-29T05:09:58;16.60;99.90
41310;DHT22;27057;51.438;-0.010;2022-07-29T05:12:26;16.60;99.90
41310;DHT22;27057;51.438;-0.010;2022-07-29T05:14:54;16.60;99.90
41310;DHT22;27057;51.438;-0.010;2022-07-29T05:17:22;16.60;99.90
41310;DHT22;27057;51.438;-0.010;2022-07-29T05:19:49;16.60;99.90
41310;DHT22;27057;51.438;-0.010;2022-07-29T05:22:19;16.70;99.90
41310;DHT22;27057;51.438;-0.010;2022-07-29T05:24:46;16.70;99.90
41310;DHT22;27057;51.438;-0.010;2022-07-29T05:27:14;16.70;99.90
41310;DHT22;27057;51.438;-0.010;2022-07-29T05:29:41;16.80;99.90
41310;DHT22;27057;51.438;-0.010;2022-07-29T05:32:12;16.90;99.90
41310;DHT22;27057;51.438;-0.010;2022-07-29T05:34:40;17.00;99.90
41310;DHT22;27057;51.438;-0.010;2022-07-29T05:37:20;17.10;99.90
41310;DHT22;27057;51.438;-0.010;2022-07-29T05:39:48;17.40;99.90
41310;DHT22;27057;51.438;-0.010;2022-07-29T05:42:24;17.30;99.90
41310;DHT22;27057;51.438;-0.010;2022-07-29T05:44:52;17.50;99.90
41310;DHT22;27057;51.438;-0.010;2022-07-29T05:47:20;17.60;99.90
41310;DHT22;27057;51.438;-0.010;2022-07-29T05:49:48;17.60;99.90
41310;DHT22;27057;51.438;-0.010;2022-07-29T05:52:15;17.70;99.90
41310;DHT22;27057;51.438;-0.010;2022-07-29T05:54:43;18.00;99.90
41310;DHT22;27057;51.438;-0.010;2022-07-29T05:59:44;18.00;99.90
41310;DHT22;27057;51.438;-0.010;2022-07-29T06:02:12;18.10;99.90
41310;DHT22;27057;51.438;-0.010;2022-07-29T06:04:39;18.20;99.90
41310;DHT22;27057;51.438;-0.010;2022-07-29T06:07:07;18.30;99.90
41310;DHT22;27057;51.438;-0.010;2022-07-29T06:09:34;18.40;99.90
41310;DHT22;27057;51.438;-0.010;2022-07-29T06:12:02;18.40;99.90
41310;DHT22;27057;51.438;-0.010;2022-07-29T06:14:30;18.50;99.90
41310;DHT22;27057;51.438;-0.010;2022-07-29T06:16:57;18.60;99.90
41310;DHT22;27057;51.438;-0.010;2022-07-29T06:19:24;18.60;99.90
41310;DHT22;27057;51.438;-0.010;2022-07-29T06:21:53;18.70;99.90
41310;DHT22;27057;51.438;-0.010;2022-07-29T06:24:20;18.80;99.90
41310;DHT22;27057;51.438;-0.010;2022-07-29T06:26:47;18.90;99.90
41310;DHT22;27057;51.438;-0.010;2022-07-29T06:29:15;19.00;99.90
41310;DHT22;27057;51.438;-0.010;2022-07-29T06:31:42;19.10;99.90
41310;DHT22;27057;51.438;-0.010;2022-07-29T06:34:10;19.20;99.90
41310;DHT22;27057;51.438;-0.010;2022-07-29T06:36:38;19.20;99.90
41310;DHT22;27057;51.438;-0.010;2022-07-29T06:39:07;19.20;99.90
41310;DHT22;27057;51.438;-0.010;2022-07-29T06:41:35;19.30;99.90
41310;DHT22;27057;51.438;-0.010;2022-07-29T06:44:09;19.30;99.90
41310;DHT22;27057;51.438;-0.010;2022-07-29T06:46:36;19.30;99.90
41310;DHT22;27057;51.438;-0.010;2022-07-29T06:49:04;19.40;99.90
41310;DHT22;27057;51.438;-0.010;2022-07-29T06:51:31;19.20;99.90
41310;DHT22;27057;51.438;-0.010;2022-07-29T06:53:59;19.40;99.90
41310;DHT22;27057;51.438;-0.010;2022-07-29T06:56:34;19.60;99.90
41310;DHT22;27057;51.438;-0.010;2022-07-29T06:59:07;19.60;99.90
41310;DHT22;27057;51.438;-0.010;2022-07-29T07:01:36;19.70;99.90
41310;DHT22;27057;51.438;-0.010;2022-07-29T07:04:05;19.80;99.90
41310;DHT22;27057;51.438;-0.010;2022-07-29T07:06:32;19.90;99.90
41310;DHT22;27057;51.438;-0.010;2022-07-29T07:09:00;20.10;99.90
41310;DHT22;27057;51.438;-0.010;2022-07-29T07:11:27;20.20;99.90
41310;DHT22;27057;51.438;-0.010;2022-07-29T07:13:54;20.20;99.90
41310;DHT22;27057;51.438;-0.010;2022-07-29T07:16:29;20.30;99.90
41310;DHT22;27057;51.438;-0.010;2022-07-29T07:18:56;20.30;99.90
41310;DHT22;27057;51.438;-0.010;2022-07-29T07:21:24;20.20;99.90
41310;DHT22;27057;51.438;-0.010;2022-07-29T07:23:51;20.20;99.90
41310;DHT22;27057;51.438;-0.010;2022-07-29T07:26:18;20.10;99.90
41310;DHT22;27057;51.438;-0.010;2022-07-29T07:28:46;20.00;99.90
41310;DHT22;27057;51.438;-0.010;2022-07-29T07:31:13;20.00;99.90
41310;DHT22;27057;51.438;-0.010;2022-07-29T07:33:41;19.90;99.90
41310;DHT22;27057;51.438;-0.010;2022-07-29T07:36:08;19.90;99.90
41310;DHT22;27057;51.438;-0.010;2022-07-29T07:38:36;20.00;99.90
41310;DHT22;27057;51.438;-0.010;2022-07-29T07:41:03;20.00;99.90
41310;DHT22;27057;51.438;-0.010;2022-07-29T07:43:31;20.10;99.90
41310;DHT22;27057;51.438;-0.010;2022-07-29T07:45:58;20.10;99.90
41310;DHT22;27057;51.438;-0.010;2022-07-29T07:48:25;20.20;99.90
41310;DHT22;27057;51.438;-0.010;2022-07-29T07:50:53;20.30;99.90
41310;DHT22;27057;51.438;-0.010;2022-07-29T07:53:21;20.40;99.90
41310;DHT22;27057;51.438;-0.010;2022-07-29T07:55:49;20.40;99.90
41310;DHT22;27057;51.438;-0.010;2022-07-29T07:58:36;20.50;99.90
41310;DHT22;27057;51.438;-0.010;2022-07-29T08:01:03;20.50;99.90
41310;DHT22;27057;51.438;-0.010;2022-07-29T08:03:31;20.60;99.90
41310;DHT22;27057;51.438;-0.010;2022-07-29T08:05:59;20.70;99.90
41310;DHT22;27057;51.438;-0.010;2022-07-29T08:08:27;20.70;99.90
41310;DHT22;27057;51.438;-0.010;2022-07-29T08:10:54;20.80;99.90
41310;DHT22;27057;51.438;-0.010;2022-07-29T08:13:26;20.70;99.90
41310;DHT22;27057;51.438;-0.010;2022-07-29T08:15:58;20.80;99.90
41310;DHT22;27057;51.438;-0.010;2022-07-29T08:18:39;20.80;99.90
41310;DHT22;27057;51.438;-0.010;2022-07-29T08:21:07;20.70;99.90
41310;DHT22;27057;51.438;-0.010;2022-07-29T08:23:35;20.80;99.90
41310;DHT22;27057;51.438;-0.010;2022-07-29T08:26:15;20.90;99.90
41310;DHT22;27057;51.438;-0.010;2022-07-29T08:28:44;20.90;99.90
41310;DHT22;27057;51.438;-0.010;2022-07-29T08:31:13;20.90;99.90
41310;DHT22;27057;51.438;-0.010;2022-07-29T08:33:41;20.80;99.90
41310;DHT22;27057;51.438;-0.010;2022-07-29T08:36:09;20.90;99.90
41310;DHT22;27057;51.438;-0.010;2022-07-29T08:38:36;20.90;99.90
41310;DHT22;27057;51.438;-0.010;2022-07-29T08:41:04;20.90;99.90
41310;DHT22;27057;51.438;-0.010;2022-07-29T08:43:31;20.90;99.90
41310;DHT22;27057;51.438;-0.010;2022-07-29T08:46:00;21.00;99.90
41310;DHT22;27057;51.438;-0.010;2022-07-29T08:48:28;20.90;99.90
41310;DHT22;27057;51.438;-0.010;2022-07-29T08:50:56;21.10;99.90
41310;DHT22;27057;51.438;-0.010;2022-07-29T08:53:26;21.20;99.90
41310;DHT22;27057;51.438;-0.010;2022-07-29T08:55:55;21.20;99.90
41310;DHT22;27057;51.438;-0.010;2022-07-29T08:58:24;21.30;99.90
41310;DHT22;27057;51.438;-0.010;2022-07-29T09:00:54;21.30;99.90
41310;DHT22;27057;51.438;-0.010;2022-07-29T09:03:30;21.40;99.90
41310;DHT22;27057;51.438;-0.010;2022-07-29T09:06:01;21.50;99.90
41310;DHT22;27057;51.438;-0.010;2022-07-29T09:08:31;21.50;99.90
41310;DHT22;27057;51.438;-0.010;2022-07-29T09:11:00;21.60;99.90
41310;DHT22;27057;51.438;-0.010;2022-07-29T09:13:31;21.40;99.90
41310;DHT22;27057;51.438;-0.010;2022-07-29T09:15:59;21.60;98.60
41310;DHT22;27057;51.438;-0.010;2022-07-29T09:18:38;21.70;98.20
41310;DHT22;27057;51.438;-0.010;2022-07-29T09:21:08;21.80;98.30
41310;DHT22;27057;51.438;-0.010;2022-07-29T09:26:31;21.90;98.50
41310;DHT22;27057;51.438;-0.010;2022-07-29T09:28:59;22.00;99.00
41310;DHT22;27057;51.438;-0.010;2022-07-29T09:31:37;22.00;98.00
41310;DHT22;27057;51.438;-0.010;2022-07-29T09:34:07;22.10;97.30
41310;DHT22;27057;51.438;-0.010;2022-07-29T09:36:43;22.10;97.80
41310;DHT22;27057;51.438;-0.010;2022-07-29T09:39:11;22.20;97.70
41310;DHT22;27057;51.438;-0.010;2022-07-29T09:41:46;22.30;96.40
41310;DHT22;27057;51.438;-0.010;2022-07-29T09:44:15;22.40;96.60
41310;DHT22;27057;51.438;-0.010;2022-07-29T09:47:03;22.50;96.10
41310;DHT22;27057;51.438;-0.010;2022-07-29T09:49:35;22.60;94.80
41310;DHT22;27057;51.438;-0.010;2022-07-29T09:52:09;22.70;95.70
41310;DHT22;27057;51.438;-0.010;2022-07-29T09:54:38;22.80;95.30
41310;DHT22;27057;51.438;-0.010;2022-07-29T09:57:09;22.80;94.80
41310;DHT22;27057;51.438;-0.010;2022-07-29T10:00:12;22.80;94.90
41310;DHT22;27057;51.438;-0.010;2022-07-29T10:02:42;22.90;94.80
41310;DHT22;27057;51.438;-0.010;2022-07-29T10:05:31;23.00;95.20
41310;DHT22;27057;51.438;-0.010;2022-07-29T10:08:03;23.10;94.50
41310;DHT22;27057;51.438;-0.010;2022-07-29T10:10:32;23.20;94.50
41310;DHT22;27057;51.438;-0.010;2022-07-29T10:13:03;23.20;94.50
41310;DHT22;27057;51.438;-0.010;2022-07-29T10:15:40;23.30;94.60
41310;DHT22;27057;51.438;-0.010;2022-07-29T10:18:11;23.40;94.50
41310;DHT22;27057;51.438;-0.010;2022-07-29T10:20:39;23.40;93.40
41310;DHT22;27057;51.438;-0.010;2022-07-29T10:23:08;23.40;93.60
41310;DHT22;27057;51.438;-0.010;2022-07-29T10:25:35;23.40;94.00
41310;DHT22;27057;51.438;-0.010;2022-07-29T10:28:04;23.50;93.90
41310;DHT22;27057;51.438;-0.010;2022-07-29T10:30:32;23.60;93.90
41310;DHT22;27057;51.438;-0.010;2022-07-29T10:38:47;24.00;91.90
41310;DHT22;27057;51.438;-0.010;2022-07-29T10:44:21;24.30;91.70
41310;DHT22;27057;51.438;-0.010;2022-07-29T10:46:51;24.40;91.50
41310;DHT22;27057;51.438;-0.010;2022-07-29T10:49:20;24.50;92.10
41310;DHT22;27057;51.438;-0.010;2022-07-29T10:52:08;24.60;92.20
41310;DHT22;27057;51.438;-0.010;2022-07-29T10:54:46;24.70;91.90
41310;DHT22;27057;51.438;-0.010;2022-07-29T10:57:27;24.70;91.40
41310;DHT22;27057;51.438;-0.010;2022-07-29T11:03:01;24.90;91.00
41310;DHT22;27057;51.438;-0.010;2022-07-29T11:05:55;25.10;92.00
41310;DHT22;27057;51.438;-0.010;2022-07-29T11:08:26;25.20;90.10
41310;DHT22;27057;51.438;-0.010;2022-07-29T11:13:50;25.60;99.30
41310;DHT22;27057;51.438;-0.010;2022-07-29T11:16:19;25.50;90.80
41310;DHT22;27057;51.438;-0.010;2022-07-29T11:21:41;25.70;90.10
41310;DHT22;27057;51.438;-0.010;2022-07-29T11:27:19;25.80;90.30
41310;DHT22;27057;51.438;-0.010;2022-07-29T11:29:58;25.90;89.20
41310;DHT22;27057;51.438;-0.010;2022-07-29T11:32:39;26.00;89.60
41310;DHT22;27057;51.438;-0.010;2022-07-29T11:35:21;26.10;88.50
41310;DHT22;27057;51.438;-0.010;2022-07-29T11:38:25;26.20;88.90
41310;DHT22;27057;51.438;-0.010;2022-07-29T11:49:10;27.20;86.10
41310;DHT22;27057;51.438;-0.010;2022-07-29T11:51:41;27.30;88.20
41310;DHT22;27057;51.438;-0.010;2022-07-29T11:54:34;27.40;88.00
41310;DHT22;27057;51.438;-0.010;2022-07-29T11:57:22;27.50;86.50
41310;DHT22;27057;51.438;-0.010;2022-07-29T12:00:06;27.50;86.60
41310;DHT22;27057;51.438;-0.010;2022-07-29T12:02:41;27.50;85.40
41310;DHT22;27057;51.438;-0.010;2022-07-29T12:05:10;27.60;83.20
41310;DHT22;27057;51.438;-0.010;2022-07-29T12:07:38;27.60;85.00
41310;DHT22;27057;51.438;-0.010;2022-07-29T12:10:11;27.60;85.60
41310;DHT22;27057;51.438;-0.010;2022-07-29T12:12:51;27.70;85.30
41310;DHT22;27057;51.438;-0.010;2022-07-29T12:15:22;27.70;84.10
41310;DHT22;27057;51.438;-0.010;2022-07-29T12:18:16;27.70;84.00
41310;DHT22;27057;51.438;-0.010;2022-07-29T12:20:45;27.70;84.20
41310;DHT22;27057;51.438;-0.010;2022-07-29T12:23:13;27.70;83.90
41310;DHT22;27057;51.438;-0.010;2022-07-29T12:25:43;27.80;84.30
41310;DHT22;27057;51.438;-0.010;2022-07-29T12:28:16;27.80;80.80
41310;DHT22;27057;51.438;-0.010;2022-07-29T12:30:54;27.90;82.50
41310;DHT22;27057;51.438;-0.010;2022-07-29T12:33:26;28.10;82.70
41310;DHT22;27057;51.438;-0.010;2022-07-29T12:35:57;28.10;82.50
41310;DHT22;27057;51.438;-0.010;2022-07-29T12:38:34;28.20;82.70
41310;DHT22;27057;51.438;-0.010;2022-07-29T12:41:02;28.40;83.30
41310;DHT22;27057;51.438;-0.010;2022-07-29T12:43:31;28.60;83.20
41310;DHT22;27057;51.438;-0.010;2022-07-29T12:46:12;28.80;82.70
41310;DHT22;27057;51.438;-0.010;2022-07-29T12:48:41;27.80;79.60
41310;DHT22;27057;51.438;-0.010;2022-07-29T12:51:10;29.00;82.20
41310;DHT22;27057;51.438;-0.010;2022-07-29T12:53:39;28.90;81.60
41310;DHT22;27057;51.438;-0.010;2022-07-29T12:56:15;29.00;94.90
41310;DHT22;27057;51.438;-0.010;2022-07-29T12:59:20;28.70;78.30
41310;DHT22;27057;51.438;-0.010;2022-07-29T13:01:50;28.50;77.80
41310;DHT22;27057;51.438;-0.010;2022-07-29T13:04:39;28.30;80.40
41310;DHT22;27057;51.438;-0.010;2022-07-29T13:07:06;28.30;80.20
41310;DHT22;27057;51.438;-0.010;2022-07-29T13:09:43;28.50;80.00
41310;DHT22;27057;51.438;-0.010;2022-07-29T13:12:12;28.80;80.90
41310;DHT22;27057;51.438;-0.010;2022-07-29T13:14:41;28.80;80.20
41310;DHT22;27057;51.438;-0.010;2022-07-29T13:22:23;28.40;80.20
41310;DHT22;27057;51.438;-0.010;2022-07-29T13:24:53;28.60;79.70
41310;DHT22;27057;51.438;-0.010;2022-07-29T13:27:25;28.80;80.40
41310;DHT22;27057;51.438;-0.010;2022-07-29T13:29:54;29.00;79.20
41310;DHT22;27057;51.438;-0.010;2022-07-29T13:32:24;29.20;79.20
41310;DHT22;27057;51.438;-0.010;2022-07-29T13:34:56;29.40;79.00
41310;DHT22;27057;51.438;-0.010;2022-07-29T13:37:23;29.70;78.90
41310;DHT22;27057;51.438;-0.010;2022-07-29T13:39:51;29.50;77.40
41310;DHT22;27057;51.438;-0.010;2022-07-29T13:42:19;29.50;77.80
41310;DHT22;27057;51.438;-0.010;2022-07-29T13:44:47;29.20;77.50
41310;DHT22;27057;51.438;-0.010;2022-07-29T13:47:16;29.10;78.00
41310;DHT22;27057;51.438;-0.010;2022-07-29T13:49:43;29.40;76.70
41310;DHT22;27057;51.438;-0.010;2022-07-29T13:52:10;29.30;76.60
41310;DHT22;27057;51.438;-0.010;2022-07-29T13:54:38;29.30;77.60
41310;DHT22;27057;51.438;-0.010;2022-07-29T13:57:09;29.70;77.50
41310;DHT22;27057;51.438;-0.010;2022-07-29T13:59:39;30.30;75.60
41310;DHT22;27057;51.438;-0.010;2022-07-29T14:02:06;31.00;74.60
41310;DHT22;27057;51.438;-0.010;2022-07-29T14:04:34;31.80;91.90
41310;DHT22;27057;51.438;-0.010;2022-07-29T14:07:06;31.80;75.30
41310;DHT22;27057;51.438;-0.010;2022-07-29T14:09:33;32.40;90.30
41310;DHT22;27057;51.438;-0.010;2022-07-29T14:12:08;32.70;74.10
41310;DHT22;27057;51.438;-0.010;2022-07-29T14:14:35;33.10;72.70
41310;DHT22;27057;51.438;-0.010;2022-07-29T14:17:04;33.40;72.10
41310;DHT22;27057;51.438;-0.010;2022-07-29T14:19:35;33.70;71.80
41310;DHT22;27057;51.438;-0.010;2022-07-29T14:22:04;34.00;70.80
41310;DHT22;27057;51.438;-0.010;2022-07-29T14:24:33;34.40;70.60
41310;DHT22;27057;51.438;-0.010;2022-07-29T14:27:07;34.80;68.60
41310;DHT22;27057;51.438;-0.010;2022-07-29T14:29:35;35.10;67.80
41310;DHT22;27057;51.438;-0.010;2022-07-29T14:32:08;34.80;64.30
41310;DHT22;27057;51.438;-0.010;2022-07-29T14:34:37;35.00;67.10
41310;DHT22;27057;51.438;-0.010;2022-07-29T14:37:05;35.10;68.20
41310;DHT22;27057;51.438;-0.010;2022-07-29T14:39:35;35.40;67.90
41310;DHT22;27057;51.438;-0.010;2022-07-29T14:42:09;35.60;66.20
41310;DHT22;27057;51.438;-0.010;2022-07-29T14:44:39;35.50;65.80
41310;DHT22;27057;51.438;-0.010;2022-07-29T14:47:08;35.00;65.60
41310;DHT22;27057;51.438;-0.010;2022-07-29T14:49:35;34.50;66.20
41310;DHT22;27057;51.438;-0.010;2022-07-29T14:52:03;33.80;66.50
41310;DHT22;27057;51.438;-0.010;2022-07-29T14:54:30;33.30;66.90
41310;DHT22;27057;51.438;-0.010;2022-07-29T14:56:59;32.70;67.00
41310;DHT22;27057;51.438;-0.010;2022-07-29T14:59:26;32.40;67.40
41310;DHT22;27057;51.438;-0.010;2022-07-29T15:01:54;31.90;67.80
41310;DHT22;27057;51.438;-0.010;2022-07-29T15:04:21;31.50;68.30
41310;DHT22;27057;51.438;-0.010;2022-07-29T15:06:49;31.20;68.70
41310;DHT22;27057;51.438;-0.010;2022-07-29T15:09:16;31.00;69.10
41310;DHT22;27057;51.438;-0.010;2022-07-29T15:11:44;30.70;69.40
41310;DHT22;27057;51.438;-0.010;2022-07-29T15:14:11;30.80;69.80
41310;DHT22;27057;51.438;-0.010;2022-07-29T15:16:39;31.10;69.50
41310;DHT22;27057;51.438;-0.010;2022-07-29T15:19:12;31.30;69.40
41310;DHT22;27057;51.438;-0.010;2022-07-29T15:21:40;31.40;68.60
41310;DHT22;27057;51.438;-0.010;2022-07-29T15:24:18;32.00;68.70
41310;DHT22;27057;51.438;-0.010;2022-07-29T15:26:46;32.80;67.70
41310;DHT22;27057;51.438;-0.010;2022-07-29T15:29:14;33.50;67.20
41310;DHT22;27057;51.438;-0.010;2022-07-29T15:31:42;34.20;66.80
41310;DHT22;27057;51.438;-0.010;2022-07-29T15:34:10;34.60;64.50
41310;DHT22;27057;51.438;-0.010;2022-07-29T15:36:38;35.00;65.40
41310;DHT22;27057;51.438;-0.010;2022-07-29T15:39:21;35.40;63.60
41310;DHT22;27057;51.438;-0.010;2022-07-29T15:41:49;35.50;63.60
41310;DHT22;27057;51.438;-0.010;2022-07-29T15:44:18;35.70;63.50
41310;DHT22;27057;51.438;-0.010;2022-07-29T15:46:48;35.70;63.40
41310;DHT22;27057;51.438;-0.010;2022-07-29T15:49:32;35.80;63.30
41310;DHT22;27057;51.438;-0.010;2022-07-29T15:52:17;35.30;63.20
41310;DHT22;27057;51.438;-0.010;2022-07-29T15:54:56;34.70;62.90
41310;DHT22;27057;51.438;-0.010;2022-07-29T15:57:24;33.80;63.00
41310;DHT22;27057;51.438;-0.010;2022-07-29T15:59:52;32.90;64.10
41310;DHT22;27057;51.438;-0.010;2022-07-29T16:02:19;32.10;64.90
41310;DHT22;27057;51.438;-0.010;2022-07-29T16:04:46;31.30;65.70
41310;DHT22;27057;51.438;-0.010;2022-07-29T16:07:14;30.70;66.70
41310;DHT22;27057;51.438;-0.010;2022-07-29T16:09:43;30.20;67.50
41310;DHT22;27057;51.438;-0.010;2022-07-29T16:12:17;29.90;68.00
41310;DHT22;27057;51.438;-0.010;2022-07-29T16:14:44;29.60;68.60
41310;DHT22;27057;51.438;-0.010;2022-07-29T16:17:11;29.40;68.80
41310;DHT22;27057;51.438;-0.010;2022-07-29T16:19:41;29.20;68.90
41310;DHT22;27057;51.438;-0.010;2022-07-29T16:22:10;29.10;69.10
41310;DHT22;27057;51.438;-0.010;2022-07-29T16:24:37;29.00;69.30
41310;DHT22;27057;51.438;-0.010;2022-07-29T16:27:05;28.80;70.40